Sea Lion — WUV3542 — position and weather

sailwx.info

Track history (hours):
 
Tides and Currents Weather Stations Pressure Air Temp Water Temp Dewpoint Dewpoint Depression Visibility Wind Speed Wind Dir Waves Ship Positions

Sea Lion

Owner: SEA WOLF MARINE INC, Bayonne, NJ. More information available from US FCC via Universal Licensing System and Coast Guard Vessel Documentation Center.

Last reported at 2017-Dec-17 23:27 UTC. Time now 2017-Dec-17 23:36 UTC.
Position N 40°41' W 074°05'.

Length 20 m; draft 3 m.

Type: Towing. MMSI: 367000930.

Date/timePositionNaut miles runAvg speedWind from/ knotsBaromVisibWave heightAir tempDewpointWater temp
2017-Dec-17 23:27N 40°41' W 074°05'0 0.0
2017-Dec-17 22:57N 40°41' W 074°05'0 0.0
2017-Dec-17 22:12N 40°41' W 074°05'0 0.0
2017-Dec-17 21:54N 40°41' W 074°05'0 0.0
2017-Dec-17 21:30N 40°41' W 074°05'0 0.0
2017-Dec-17 20:48N 40°41' W 074°05'0 0.0
2017-Dec-17 20:30N 40°41' W 074°05'0 0.0
2017-Dec-17 19:48N 40°41' W 074°05'0 0.0
2017-Dec-17 19:30N 40°41' W 074°05'0 0.0
2017-Dec-17 19:00N 40°41' W 074°05'0 0.1
2017-Dec-17 18:30N 40°41' W 074°05'0 0.1
2017-Dec-17 18:01N 40°41' W 074°05'0 0.2
2017-Dec-17 17:29N 40°41' W 074°05'0 0.0
2017-Dec-17 16:59N 40°41' W 074°05'0 0.0
2017-Dec-17 16:26N 40°41' W 074°05'0 0.0
2017-Dec-17 15:59N 40°41' W 074°05'0 0.0
2017-Dec-17 15:29N 40°41' W 074°05'0 0.0
2017-Dec-17 14:53N 40°41' W 074°05'0 0.0
2017-Dec-17 14:26N 40°41' W 074°05'0 0.0
2017-Dec-17 13:56N 40°41' W 074°05'0 0.0
2017-Dec-17 13:26N 40°41' W 074°05'0 0.0
2017-Dec-17 12:53N 40°41' W 074°05'0 0.0
2017-Dec-17 12:26N 40°41' W 074°05'0 0.0
2017-Dec-17 11:59N 40°41' W 074°05'0 0.0
2017-Dec-17 11:29N 40°41' W 074°05'0 0.0
2017-Dec-17 10:53N 40°41' W 074°05'0 0.0
2017-Dec-17 10:29N 40°41' W 074°05'0 0.0
2017-Dec-17 09:59N 40°41' W 074°05'0 0.0
2017-Dec-17 09:29N 40°41' W 074°05'0 0.0
2017-Dec-17 08:59N 40°41' W 074°05'0 0.0
2017-Dec-17 08:29N 40°41' W 074°05'0 0.0
2017-Dec-17 07:56N 40°41' W 074°05'0 0.0
2017-Dec-17 07:26N 40°41' W 074°05'0 0.0
2017-Dec-17 06:59N 40°41' W 074°05'0 0.0
2017-Dec-17 06:29N 40°41' W 074°05'0 0.0
2017-Dec-17 05:59N 40°41' W 074°05'0 0.0
2017-Dec-17 05:29N 40°41' W 074°05'0 0.0
2017-Dec-17 04:59N 40°41' W 074°05'0 0.0
2017-Dec-17 04:29N 40°41' W 074°05'0 0.0
2017-Dec-17 03:59N 40°41' W 074°05'0 0.0
2017-Dec-17 03:26N 40°41' W 074°05'0 0.0
2017-Dec-17 02:59N 40°41' W 074°05'0 0.0
2017-Dec-17 02:26N 40°41' W 074°05'0 0.0
2017-Dec-17 01:53N 40°41' W 074°05'0 0.0
2017-Dec-17 01:29N 40°41' W 074°05'0 0.0
2017-Dec-17 00:56N 40°41' W 074°05'0 0.0
2017-Dec-17 00:26N 40°41' W 074°05'0 0.0
2017-Dec-16 23:59N 40°41' W 074°05'0 0.0
2017-Dec-16 23:29N 40°41' W 074°05'0 0.0
2017-Dec-16 22:47N 40°41' W 074°05'0 0.0
2017-Dec-16 22:26N 40°41' W 074°05'0 0.0
2017-Dec-16 21:59N 40°41' W 074°05'0 0.0
2017-Dec-16 21:29N 40°41' W 074°05'0 0.0
2017-Dec-16 20:56N 40°41' W 074°05'0 0.0
2017-Dec-16 20:26N 40°41' W 074°05'0 0.0
2017-Dec-16 19:53N 40°41' W 074°05'0 0.0
2017-Dec-16 19:29N 40°41' W 074°05'0 0.0
2017-Dec-16 18:59N 40°41' W 074°05'0 0.0
2017-Dec-16 18:29N 40°41' W 074°05'0 0.0
2017-Dec-16 17:59N 40°41' W 074°05'0 0.0
2017-Dec-16 17:20N 40°41' W 074°05'0 0.0
2017-Dec-16 16:59N 40°41' W 074°05'0 0.0
2017-Dec-16 16:26N 40°41' W 074°05'3 6.5
2017-Dec-16 16:01N 40°40' W 074°01'2 3.7
2017-Dec-16 15:30N 40°42' W 074°00'4 7.6
2017-Dec-16 15:00N 40°45' W 073°58'4 8.1
2017-Dec-16 14:30N 40°48' W 073°54'2 1.6
2017-Dec-16 13:25N 40°49' W 073°52'2 5.3
2017-Dec-16 13:00N 40°48' W 073°55'4 8.9
2017-Dec-16 12:30N 40°44' W 073°58'4 8.3
2017-Dec-16 12:00N 40°41' W 074°01'1 1.7
2017-Dec-16 11:30N 40°40' W 074°01'3 5.7
2017-Dec-16 10:58N 40°41' W 074°05'0 0.0
2017-Dec-16 10:28N 40°41' W 074°05'0 0.0
2017-Dec-16 09:58N 40°41' W 074°05'0 0.0
2017-Dec-16 09:28N 40°41' W 074°05'0 0.0
2017-Dec-16 08:58N 40°41' W 074°05'0 0.0
2017-Dec-16 08:28N 40°41' W 074°05'0 0.0
2017-Dec-16 07:58N 40°41' W 074°05'0 0.0
2017-Dec-16 07:22N 40°41' W 074°05'0 0.0
2017-Dec-16 06:58N 40°41' W 074°05'0 0.0
2017-Dec-16 06:28N 40°41' W 074°05'0 0.0
2017-Dec-16 05:58N 40°41' W 074°05'0 0.0
2017-Dec-16 05:28N 40°41' W 074°05'0 0.0
2017-Dec-16 04:58N 40°41' W 074°05'0 0.0
2017-Dec-16 04:28N 40°41' W 074°05'0 0.0
2017-Dec-16 03:58N 40°41' W 074°05'0 0.0
2017-Dec-16 03:07N 40°41' W 074°05'0 0.0
2017-Dec-16 02:58N 40°41' W 074°05'0 0.0
2017-Dec-16 01:49N 40°41' W 074°05'0 0.0
2017-Dec-16 01:25N 40°41' W 074°05'0 0.0
2017-Dec-16 00:55N 40°41' W 074°05'0 0.0
2017-Dec-16 00:25N 40°41' W 074°05'0 0.0
2017-Dec-15 23:55N 40°41' W 074°05'0 0.0
2017-Dec-15 23:25N 40°41' W 074°05'0 0.0
2017-Dec-15 22:55N 40°41' W 074°05'0 0.5
2017-Dec-15 22:30N 40°41' W 074°04'0 0.2
2017-Dec-15 21:31N 40°41' W 074°05'0 0.1
2017-Dec-15 21:25N 40°41' W 074°05'0 0.0
2017-Dec-15 20:55N 40°41' W 074°05'0 0.0
2017-Dec-15 20:12N 40°41' W 074°05'0 0.0
2017-Dec-15 18:46N 40°41' W 074°05'0 0.0
2017-Dec-15 18:28N 40°41' W 074°05'0 0.0
2017-Dec-15 17:58N 40°41' W 074°05'0 0.0
2017-Dec-15 17:29N 40°41' W 074°05'0 0.0
2017-Dec-15 16:59N 40°41' W 074°05'2 3.8
2017-Dec-15 16:30N 40°41' W 074°02'0 0.6
2017-Dec-15 16:00N 40°42' W 074°03'0 0.0
2017-Dec-15 15:30N 40°42' W 074°03'0 0.0
2017-Dec-15 15:00N 40°42' W 074°03'0 0.0
2017-Dec-15 14:30N 40°42' W 074°03'0 0.0
2017-Dec-15 14:00N 40°42' W 074°03'0 0.5
2017-Dec-15 13:30N 40°42' W 074°02'2 3.1
2017-Dec-15 12:57N 40°41' W 074°05'0 0.0
2017-Dec-15 12:30N 40°41' W 074°05'0 0.0
2017-Dec-15 11:57N 40°41' W 074°05'0 0.0
2017-Dec-15 11:29N 40°41' W 074°05'0 0.0
2017-Dec-15 10:59N 40°41' W 074°05'0 0.0
2017-Dec-15 10:29N 40°41' W 074°05'0 0.0
2017-Dec-15 09:59N 40°41' W 074°05'0 0.0
2017-Dec-15 09:23N 40°41' W 074°05'0 0.0
2017-Dec-15 08:59N 40°41' W 074°05'0 0.0
2017-Dec-15 08:26N 40°41' W 074°05'0 0.0
2017-Dec-15 07:59N 40°41' W 074°05'0 0.0
2017-Dec-15 07:29N 40°41' W 074°05'0 0.0
2017-Dec-15 06:59N 40°41' W 074°05'0 0.0
2017-Dec-15 06:29N 40°41' W 074°05'0 0.0
2017-Dec-15 05:59N 40°41' W 074°05'0 0.0
2017-Dec-15 05:26N 40°41' W 074°05'0 0.0
2017-Dec-15 04:56N 40°41' W 074°05'0 0.0
2017-Dec-15 04:20N 40°41' W 074°05'0 0.0
2017-Dec-15 03:59N 40°41' W 074°05'0 0.0
2017-Dec-15 02:26N 40°41' W 074°05'0 0.0
2017-Dec-15 00:50N 40°41' W 074°05'0 0.0
2017-Dec-15 00:30N 40°41' W 074°05'0 0.0
2017-Dec-14 18:26N 40°41' W 074°05'0 0.0
2017-Dec-14 17:56N 40°41' W 074°05'0 0.0
2017-Dec-14 17:29N 40°41' W 074°05'0 0.0
2017-Dec-14 16:56N 40°41' W 074°05'0 0.0
2017-Dec-14 16:26N 40°41' W 074°05'0 0.0
2017-Dec-14 15:56N 40°41' W 074°05'0 0.0
2017-Dec-14 14:59N 40°41' W 074°05'3 6.6
2017-Dec-14 14:30N 40°40' W 074°01'0 0.9
2017-Dec-14 14:01N 40°40' W 074°01'4 8.1
2017-Dec-14 13:30N 40°43' W 073°58'5 9.0
2017-Dec-14 13:00N 40°47' W 073°55'3 2.0
2017-Dec-14 11:44N 40°49' W 073°52'1 3.7
2017-Dec-14 11:30N 40°48' W 073°53'4 7.6
2017-Dec-14 10:59N 40°46' W 073°57'4 8.1
2017-Dec-14 10:30N 40°42' W 073°59'4 7.3
2017-Dec-14 10:00N 40°40' W 074°03'1 2.4
2017-Dec-14 09:30N 40°41' W 074°05'0 0.0
2017-Dec-14 09:00N 40°41' W 074°05'0 0.0
2017-Dec-14 08:30N 40°41' W 074°05'0 0.0
2017-Dec-14 07:57N 40°41' W 074°05'0 0.0
2017-Dec-14 07:30N 40°41' W 074°05'0 0.0
2017-Dec-14 07:00N 40°41' W 074°05'0 0.0
2017-Dec-14 06:30N 40°41' W 074°05'0 0.0
2017-Dec-14 05:48N 40°41' W 074°05'0 0.0
2017-Dec-14 05:30N 40°41' W 074°05'0 0.0
2017-Dec-14 04:57N 40°41' W 074°05'0 0.0
2017-Dec-14 04:27N 40°41' W 074°05'0 0.0
2017-Dec-14 03:54N 40°41' W 074°05'0 0.0
2017-Dec-14 03:24N 40°41' W 074°05'0 0.0
2017-Dec-14 02:45N 40°41' W 074°05'0 0.0
2017-Dec-14 02:30N 40°41' W 074°05'0 0.0
2017-Dec-14 01:51N 40°41' W 074°05'0 0.0
2017-Dec-14 01:27N 40°41' W 074°05'0 0.0
2017-Dec-14 01:00N 40°41' W 074°05'2 3.3
2017-Dec-14 00:30N 40°40' W 074°03'1 2.6
2017-Dec-14 00:01N 40°41' W 074°01'3 5.8
2017-Dec-13 23:31N 40°43' W 073°59'2 3.9
2017-Dec-13 22:59N 40°44' W 073°57'0 0.1
2017-Dec-13 22:30N 40°44' W 073°57'0 0.0
2017-Dec-13 22:00N 40°44' W 073°57'0 0.0
2017-Dec-13 21:30N 40°44' W 073°57'3 6.4
2017-Dec-13 21:00N 40°42' W 073°60'3 6.7
2017-Dec-13 20:30N 40°41' W 074°04'1 1.6
2017-Dec-13 19:59N 40°41' W 074°05'0 0.0
2017-Dec-13 19:29N 40°41' W 074°05'0 0.0
2017-Dec-13 18:59N 40°41' W 074°05'0 0.0
2017-Dec-13 18:29N 40°41' W 074°05'0 0.0
2017-Dec-13 17:59N 40°41' W 074°05'0 0.0
2017-Dec-13 17:29N 40°41' W 074°05'0 0.1
2017-Dec-13 17:00N 40°41' W 074°05'0 0.1
2017-Dec-13 16:27N 40°41' W 074°05'0 0.0
2017-Dec-13 15:57N 40°41' W 074°05'0 0.0
2017-Dec-13 15:27N 40°41' W 074°05'0 0.0
2017-Dec-13 14:57N 40°41' W 074°05'0 0.0
2017-Dec-13 13:42N 40°41' W 074°05'0 0.0
2017-Dec-13 12:36N 40°41' W 074°05'0 0.0
2017-Dec-13 12:30N 40°41' W 074°05'0 0.0
2017-Dec-13 11:45N 40°41' W 074°05'0 0.0
2017-Dec-13 11:27N 40°41' W 074°05'0 0.0
2017-Dec-13 10:57N 40°41' W 074°05'0 0.0
2017-Dec-13 10:30N 40°41' W 074°05'0 0.0
2017-Dec-13 10:00N 40°41' W 074°05'0 0.0
2017-Dec-13 09:27N 40°41' W 074°05'0 0.0
2017-Dec-13 08:51N 40°41' W 074°05'0 0.0
2017-Dec-13 08:27N 40°41' W 074°05'0 0.0
2017-Dec-13 08:00N 40°41' W 074°05'0 0.0
2017-Dec-13 07:30N 40°41' W 074°05'0 0.0
2017-Dec-13 06:57N 40°41' W 074°05'0 0.0
2017-Dec-13 06:27N 40°41' W 074°05'0 0.0
2017-Dec-13 06:00N 40°41' W 074°05'0 0.0
2017-Dec-13 05:27N 40°41' W 074°05'0 0.0
2017-Dec-13 04:54N 40°41' W 074°05'0 0.0
2017-Dec-13 04:30N 40°41' W 074°05'0 0.0
2017-Dec-13 03:54N 40°41' W 074°05'0 0.0
2017-Dec-13 03:24N 40°41' W 074°05'0 0.0
2017-Dec-13 03:00N 40°41' W 074°05'0 0.0
2017-Dec-13 02:27N 40°41' W 074°05'0 0.0
2017-Dec-13 02:00N 40°41' W 074°05'0 0.0
2017-Dec-13 01:27N 40°41' W 074°05'0 0.0
2017-Dec-13 00:54N 40°41' W 074°05'0 0.0
2017-Dec-13 00:27N 40°41' W 074°05'0 0.0
2017-Dec-12 23:57N 40°41' W 074°05'0 0.0
2017-Dec-12 23:30N 40°41' W 074°05'0 0.0
2017-Dec-12 23:00N 40°41' W 074°05'0 0.0
2017-Dec-12 22:21N 40°41' W 074°05'0 0.0
2017-Dec-12 22:00N 40°41' W 074°05'0 0.0
2017-Dec-12 21:27N 40°41' W 074°05'0 0.0
2017-Dec-12 20:54N 40°41' W 074°05'0 0.0
2017-Dec-12 20:30N 40°41' W 074°05'0 0.0
2017-Dec-12 20:00N 40°41' W 074°05'0 0.0
2017-Dec-12 19:27N 40°41' W 074°05'0 0.0
2017-Dec-12 19:00N 40°41' W 074°05'0 0.0
2017-Dec-12 18:30N 40°41' W 074°05'0 0.0
2017-Dec-12 17:57N 40°41' W 074°05'0 0.0
2017-Dec-12 17:27N 40°41' W 074°05'0 0.0
2017-Dec-12 17:00N 40°41' W 074°05'0 0.0
2017-Dec-12 16:30N 40°41' W 074°05'0 0.0
2017-Dec-12 16:00N 40°41' W 074°05'0 0.0
2017-Dec-12 15:27N 40°41' W 074°05'0 0.0
2017-Dec-12 15:00N 40°41' W 074°05'0 0.0
2017-Dec-12 14:30N 40°41' W 074°05'0 0.0
2017-Dec-12 14:00N 40°41' W 074°05'0 0.0
2017-Dec-12 13:30N 40°41' W 074°05'0 0.0
2017-Dec-12 13:00N 40°41' W 074°05'0 0.0
2017-Dec-12 12:12N 40°41' W 074°05'0 0.0
2017-Dec-12 12:00N 40°41' W 074°05'0 0.0
2017-Dec-12 11:27N 40°41' W 074°05'0 0.0
2017-Dec-12 11:00N 40°41' W 074°05'0 0.0
2017-Dec-12 10:27N 40°41' W 074°05'0 0.0
2017-Dec-12 09:57N 40°41' W 074°05'0 0.0
2017-Dec-12 09:27N 40°41' W 074°05'0 0.0
2017-Dec-12 08:54N 40°41' W 074°05'0 0.0
2017-Dec-12 08:27N 40°41' W 074°05'0 0.0
2017-Dec-12 08:00N 40°41' W 074°05'0 0.0
2017-Dec-12 07:30N 40°41' W 074°05'0 0.0
2017-Dec-12 07:00N 40°41' W 074°05'0 0.0
2017-Dec-12 06:30N 40°41' W 074°05'0 0.0
2017-Dec-12 06:00N 40°41' W 074°05'0 0.0
2017-Dec-12 05:30N 40°41' W 074°05'0 0.0
2017-Dec-12 05:00N 40°41' W 074°05'0 0.0
2017-Dec-12 04:27N 40°41' W 074°05'0 0.0
2017-Dec-12 04:00N 40°41' W 074°05'0 0.0
2017-Dec-12 03:30N 40°41' W 074°05'0 0.0
2017-Dec-12 03:00N 40°41' W 074°05'0 0.0
2017-Dec-12 02:27N 40°41' W 074°05'0 0.0
2017-Dec-12 02:00N 40°41' W 074°05'0 0.0
2017-Dec-12 01:30N 40°41' W 074°05'0 0.0
2017-Dec-12 00:48N 40°41' W 074°05'0 0.0
2017-Dec-12 00:24N 40°41' W 074°05'0 0.0
2017-Dec-11 23:57N 40°41' W 074°05'0 0.0
2017-Dec-11 23:30N 40°41' W 074°05'0 0.0
2017-Dec-11 23:00N 40°41' W 074°05'0 0.0
2017-Dec-11 22:27N 40°41' W 074°05'0 0.0
2017-Dec-11 21:57N 40°41' W 074°05'0 0.0
2017-Dec-11 21:27N 40°41' W 074°05'0 0.0
2017-Dec-11 21:00N 40°41' W 074°05'0 0.0
2017-Dec-11 20:21N 40°41' W 074°05'0 0.0
2017-Dec-11 19:57N 40°41' W 074°05'0 0.0
2017-Dec-11 19:30N 40°41' W 074°05'0 0.0
2017-Dec-11 18:51N 40°41' W 074°05'0 0.0
2017-Dec-11 18:24N 40°41' W 074°05'0 0.0
2017-Dec-11 17:57N 40°41' W 074°05'0 0.0
2017-Dec-11 17:27N 40°41' W 074°05'0 0.0
2017-Dec-11 17:00N 40°41' W 074°05'0 0.2
2017-Dec-11 16:28N 40°41' W 074°05'0 0.2
2017-Dec-11 16:00N 40°41' W 074°05'1 2.9
2017-Dec-11 15:29N 40°42' W 074°03'0 0.0
2017-Dec-11 14:59N 40°42' W 074°03'0 0.0
2017-Dec-11 14:29N 40°42' W 074°03'0 0.0
2017-Dec-11 13:59N 40°42' W 074°03'0 0.0
2017-Dec-11 13:29N 40°42' W 074°03'0 0.2
2017-Dec-11 12:59N 40°42' W 074°03'1 2.7
2017-Dec-11 12:31N 40°41' W 074°04'1 1.8
2017-Dec-11 11:58N 40°41' W 074°05'0 0.1
2017-Dec-11 11:30N 40°41' W 074°05'0 0.1
2017-Dec-11 11:00N 40°41' W 074°05'0 0.0
2017-Dec-11 10:30N 40°41' W 074°05'0 0.0
2017-Dec-11 09:57N 40°41' W 074°05'0 0.0
2017-Dec-11 09:27N 40°41' W 074°05'0 0.0
2017-Dec-11 09:00N 40°41' W 074°05'0 0.0
2017-Dec-11 08:31N 40°41' W 074°05'0 0.0
2017-Dec-11 08:00N 40°41' W 074°05'0 0.0
2017-Dec-11 07:30N 40°41' W 074°05'0 0.0
2017-Dec-11 07:00N 40°41' W 074°05'0 0.0
2017-Dec-11 06:30N 40°41' W 074°05'0 0.0
2017-Dec-11 05:57N 40°41' W 074°05'0 0.0
2017-Dec-11 05:30N 40°41' W 074°05'0 0.0
2017-Dec-11 04:54N 40°41' W 074°05'0 0.0
2017-Dec-11 04:30N 40°41' W 074°05'0 0.0
2017-Dec-11 03:54N 40°41' W 074°05'0 0.0
2017-Dec-11 03:30N 40°41' W 074°05'0 0.0
2017-Dec-11 03:00N 40°41' W 074°05'0 0.0
2017-Dec-11 02:30N 40°41' W 074°05'0 0.0
2017-Dec-11 01:57N 40°41' W 074°05'0 0.0
2017-Dec-11 01:30N 40°41' W 074°05'0 0.0
2017-Dec-11 00:57N 40°41' W 074°05'0 0.0
2017-Dec-11 00:30N 40°41' W 074°05'0 0.0
2017-Dec-11 00:00N 40°41' W 074°05'0 0.0
2017-Dec-10 23:30N 40°41' W 074°05'0 0.0
2017-Dec-10 22:57N 40°41' W 074°05'0 0.0
2017-Dec-10 22:30N 40°41' W 074°05'0 0.0
2017-Dec-10 22:00N 40°41' W 074°05'0 0.0
2017-Dec-10 21:27N 40°41' W 074°05'0 0.0
2017-Dec-10 21:00N 40°41' W 074°05'0 0.0
2017-Dec-10 20:30N 40°41' W 074°05'0 0.0
2017-Dec-10 20:00N 40°41' W 074°05'0 0.0
2017-Dec-10 19:30N 40°41' W 074°05'0 0.0
2017-Dec-10 19:00N 40°41' W 074°05'0 0.0
2017-Dec-10 18:30N 40°41' W 074°05'0 0.0
2017-Dec-10 17:57N 40°41' W 074°05'0 0.0
2017-Dec-10 17:30N 40°41' W 074°05'0 0.0
2017-Dec-10 16:51N 40°41' W 074°05'0 0.0
2017-Dec-10 16:30N 40°41' W 074°05'0 0.0
2017-Dec-10 16:00N 40°41' W 074°05'0 0.0
2017-Dec-10 15:30N 40°41' W 074°05'0 0.1
2017-Dec-10 15:00N 40°41' W 074°05'0 0.0
2017-Dec-10 14:29N 40°41' W 074°05'0 0.2
2017-Dec-10 14:00N 40°41' W 074°05'0 0.0
2017-Dec-10 13:24N 40°41' W 074°05'0 0.0
2017-Dec-10 12:57N 40°41' W 074°05'0 0.0
2017-Dec-10 12:30N 40°41' W 074°05'0 0.0
2017-Dec-10 12:00N 40°41' W 074°05'0 0.0
2017-Dec-10 11:30N 40°41' W 074°05'0 0.0
2017-Dec-10 10:57N 40°41' W 074°05'0 0.0
2017-Dec-10 10:27N 40°41' W 074°05'0 0.0
2017-Dec-10 09:57N 40°41' W 074°05'0 0.0
2017-Dec-10 09:28N 40°41' W 074°05'0 0.0
2017-Dec-10 08:58N 40°41' W 074°05'0 0.0
2017-Dec-10 08:30N 40°41' W 074°05'0 0.0
2017-Dec-10 08:00N 40°41' W 074°05'0 0.0
2017-Dec-10 07:30N 40°41' W 074°05'0 0.0
2017-Dec-10 06:54N 40°41' W 074°05'0 0.0
2017-Dec-10 06:30N 40°41' W 074°05'0 0.0
2017-Dec-10 06:00N 40°41' W 074°05'0 0.0
2017-Dec-10 05:24N 40°41' W 074°05'0 0.0
2017-Dec-10 05:00N 40°41' W 074°05'0 0.0
2017-Dec-10 04:30N 40°41' W 074°05'0 0.0
2017-Dec-10 04:00N 40°41' W 074°05'0 0.0
2017-Dec-10 03:30N 40°41' W 074°05'0 0.0
2017-Dec-10 03:00N 40°41' W 074°05'0 0.0
2017-Dec-10 02:30N 40°41' W 074°05'0 0.0
2017-Dec-10 02:00N 40°41' W 074°05'0 0.0
2017-Dec-10 01:24N 40°41' W 074°05'0 0.0
2017-Dec-10 01:00N 40°41' W 074°05'0 0.0
2017-Dec-10 00:30N 40°41' W 074°05'0 0.0
2017-Dec-10 00:00N 40°41' W 074°05'0 0.0
2017-Dec-09 23:30N 40°41' W 074°05'0 0.0
2017-Dec-09 23:00N 40°41' W 074°05'0 0.0
2017-Dec-09 22:27N 40°41' W 074°05'0 0.0
2017-Dec-09 22:00N 40°41' W 074°05'0 0.0
2017-Dec-09 21:27N 40°41' W 074°05'0 0.0
2017-Dec-09 21:00N 40°41' W 074°05'0 0.0
2017-Dec-09 20:30N 40°41' W 074°05'0 0.0
2017-Dec-09 20:00N 40°41' W 074°05'0 0.0
2017-Dec-09 19:30N 40°41' W 074°05'0 0.5
2017-Dec-09 19:00N 40°41' W 074°04'2 4.4
2017-Dec-09 18:30N 40°40' W 074°02'1 2.0
2017-Dec-09 17:58N 40°40' W 074°01'0 1.0
2017-Dec-09 17:30N 40°40' W 074°01'3 6.1
2017-Dec-09 17:00N 40°41' W 074°05'0 0.0
2017-Dec-09 16:30N 40°41' W 074°05'0 0.0
2017-Dec-09 15:54N 40°41' W 074°05'0 0.0
2017-Dec-09 15:30N 40°41' W 074°05'0 0.0
2017-Dec-09 14:54N 40°41' W 074°05'0 0.0
2017-Dec-09 14:30N 40°41' W 074°05'0 0.0
2017-Dec-09 14:00N 40°41' W 074°05'0 0.0
2017-Dec-09 13:27N 40°41' W 074°05'0 0.0
2017-Dec-09 13:00N 40°41' W 074°05'0 0.0
2017-Dec-09 12:27N 40°41' W 074°05'0 0.0
2017-Dec-09 12:00N 40°41' W 074°05'0 0.0
2017-Dec-09 11:24N 40°41' W 074°05'0 0.0
2017-Dec-09 10:57N 40°41' W 074°05'0 0.0
2017-Dec-09 10:30N 40°41' W 074°05'0 0.0
2017-Dec-09 09:51N 40°41' W 074°05'0 0.0
2017-Dec-09 09:30N 40°41' W 074°05'0 0.0
2017-Dec-09 08:54N 40°41' W 074°05'0 0.0
2017-Dec-09 08:30N 40°41' W 074°05'0 0.0
2017-Dec-09 07:57N 40°41' W 074°05'0 0.0
2017-Dec-09 07:24N 40°41' W 074°05'0 0.0
2017-Dec-09 07:00N 40°41' W 074°05'0 0.0
2017-Dec-09 06:30N 40°41' W 074°05'0 0.0
2017-Dec-09 06:00N 40°41' W 074°05'0 0.0
2017-Dec-09 05:27N 40°41' W 074°05'0 0.0
2017-Dec-09 05:00N 40°41' W 074°05'0 0.0
2017-Dec-09 04:30N 40°41' W 074°05'0 0.0
2017-Dec-09 04:00N 40°41' W 074°05'0 0.0
2017-Dec-09 03:30N 40°41' W 074°05'0 0.0
2017-Dec-09 02:54N 40°41' W 074°05'0 0.0
2017-Dec-09 02:30N 40°41' W 074°05'0 0.0
2017-Dec-09 01:54N 40°41' W 074°05'0 0.0
2017-Dec-09 01:30N 40°41' W 074°05'0 0.0
2017-Dec-09 01:00N 40°41' W 074°05'0 0.0
2017-Dec-09 00:30N 40°41' W 074°05'0 0.0
2017-Dec-09 00:00N 40°41' W 074°05'0 0.0
2017-Dec-08 23:30N 40°41' W 074°05'0 0.0
2017-Dec-08 22:57N 40°41' W 074°05'0 0.0
2017-Dec-08 22:30N 40°41' W 074°05'0 0.0
2017-Dec-08 22:00N 40°41' W 074°05'0 0.0
2017-Dec-08 21:30N 40°41' W 074°05'0 0.0
2017-Dec-08 20:54N 40°41' W 074°05'0 0.0
2017-Dec-08 20:30N 40°41' W 074°05'0 0.0
2017-Dec-08 20:00N 40°41' W 074°05'0 0.0
2017-Dec-08 19:30N 40°41' W 074°05'0 0.0
2017-Dec-08 18:54N 40°41' W 074°05'0 0.0
2017-Dec-08 18:24N 40°41' W 074°05'0 0.0
2017-Dec-08 17:54N 40°41' W 074°05'0 0.0
2017-Dec-08 17:30N 40°41' W 074°05'0 0.0
2017-Dec-08 16:51N 40°41' W 074°05'0 0.0
2017-Dec-08 16:30N 40°41' W 074°05'0 0.0
2017-Dec-08 16:00N 40°41' W 074°05'0 0.0
2017-Dec-08 15:24N 40°41' W 074°05'0 0.0
2017-Dec-08 15:00N 40°41' W 074°05'0 0.0
2017-Dec-08 14:27N 40°41' W 074°05'0 0.0
2017-Dec-08 13:57N 40°41' W 074°05'0 0.0
2017-Dec-08 13:30N 40°41' W 074°05'0 0.0
2017-Dec-08 13:00N 40°41' W 074°05'0 0.0
2017-Dec-08 12:30N 40°41' W 074°05'0 0.0
2017-Dec-08 12:00N 40°41' W 074°05'0 0.0
2017-Dec-08 11:30N 40°41' W 074°05'0 0.0
2017-Dec-08 11:00N 40°41' W 074°05'0 0.0
2017-Dec-08 10:30N 40°41' W 074°05'0 0.0
2017-Dec-08 10:00N 40°41' W 074°05'0 0.0
2017-Dec-08 09:30N 40°41' W 074°05'0 0.0
2017-Dec-08 09:00N 40°41' W 074°05'0 0.0
2017-Dec-08 08:30N 40°41' W 074°05'0 0.0
2017-Dec-08 08:00N 40°41' W 074°05'0 0.0
2017-Dec-08 07:30N 40°41' W 074°05'0 0.0
2017-Dec-08 07:00N 40°41' W 074°05'0 0.0
2017-Dec-08 06:30N 40°41' W 074°05'0 0.0
2017-Dec-08 05:48N 40°41' W 074°05'0 0.0
2017-Dec-08 05:24N 40°41' W 074°05'0 0.0
2017-Dec-08 04:57N 40°41' W 074°05'0 0.0
2017-Dec-08 04:30N 40°41' W 074°05'0 0.0
2017-Dec-08 04:00N 40°41' W 074°05'0 0.0
2017-Dec-08 03:30N 40°41' W 074°05'0 0.0
2017-Dec-08 03:00N 40°41' W 074°05'0 0.0
2017-Dec-08 02:30N 40°41' W 074°05'0 0.0
2017-Dec-08 02:00N 40°41' W 074°05'0 0.0
2017-Dec-08 01:24N 40°41' W 074°05'0 0.0
2017-Dec-08 01:00N 40°41' W 074°05'0 0.0
2017-Dec-08 00:30N 40°41' W 074°05'0 0.0
2017-Dec-08 00:00N 40°41' W 074°05'  
Track history (hours):
 
Tides and Currents Weather Stations Pressure Air Temp Water Temp Dewpoint Dewpoint Depression Visibility Wind Speed Wind Dir Waves Ship Positions

Sea Lion

Owner: SEA WOLF MARINE INC, Bayonne, NJ. More information available from US FCC via Universal Licensing System and Coast Guard Vessel Documentation Center.

Last reported at 2017-Dec-17 23:27 UTC. Time now 2017-Dec-17 23:36 UTC.
Position N 40°41' W 074°05'.

Length 20 m; draft 3 m.

Type: Towing. MMSI: 367000930.

Date/timePositionNaut miles runAvg speedWind from/ knotsBaromVisibWave heightAir tempDewpointWater temp
2017-Dec-17 23:27N 40°41' W 074°05'0 0.0
2017-Dec-17 22:57N 40°41' W 074°05'0 0.0
2017-Dec-17 22:12N 40°41' W 074°05'0 0.0
2017-Dec-17 21:54N 40°41' W 074°05'0 0.0
2017-Dec-17 21:30N 40°41' W 074°05'0 0.0
2017-Dec-17 20:48N 40°41' W 074°05'0 0.0
2017-Dec-17 20:30N 40°41' W 074°05'0 0.0
2017-Dec-17 19:48N 40°41' W 074°05'0 0.0
2017-Dec-17 19:30N 40°41' W 074°05'0 0.0
2017-Dec-17 19:00N 40°41' W 074°05'0 0.1
2017-Dec-17 18:30N 40°41' W 074°05'0 0.1
2017-Dec-17 18:01N 40°41' W 074°05'0 0.2
2017-Dec-17 17:29N 40°41' W 074°05'0 0.0
2017-Dec-17 16:59N 40°41' W 074°05'0 0.0
2017-Dec-17 16:26N 40°41' W 074°05'0 0.0
2017-Dec-17 15:59N 40°41' W 074°05'0 0.0
2017-Dec-17 15:29N 40°41' W 074°05'0 0.0
2017-Dec-17 14:53N 40°41' W 074°05'0 0.0
2017-Dec-17 14:26N 40°41' W 074°05'0 0.0
2017-Dec-17 13:56N 40°41' W 074°05'0 0.0
2017-Dec-17 13:26N 40°41' W 074°05'0 0.0
2017-Dec-17 12:53N 40°41' W 074°05'0 0.0
2017-Dec-17 12:26N 40°41' W 074°05'0 0.0
2017-Dec-17 11:59N 40°41' W 074°05'0 0.0
2017-Dec-17 11:29N 40°41' W 074°05'0 0.0
2017-Dec-17 10:53N 40°41' W 074°05'0 0.0
2017-Dec-17 10:29N 40°41' W 074°05'0 0.0
2017-Dec-17 09:59N 40°41' W 074°05'0 0.0
2017-Dec-17 09:29N 40°41' W 074°05'0 0.0
2017-Dec-17 08:59N 40°41' W 074°05'0 0.0
2017-Dec-17 08:29N 40°41' W 074°05'0 0.0
2017-Dec-17 07:56N 40°41' W 074°05'0 0.0
2017-Dec-17 07:26N 40°41' W 074°05'0 0.0
2017-Dec-17 06:59N 40°41' W 074°05'0 0.0
2017-Dec-17 06:29N 40°41' W 074°05'0 0.0
2017-Dec-17 05:59N 40°41' W 074°05'0 0.0
2017-Dec-17 05:29N 40°41' W 074°05'0 0.0
2017-Dec-17 04:59N 40°41' W 074°05'0 0.0
2017-Dec-17 04:29N 40°41' W 074°05'0 0.0
2017-Dec-17 03:59N 40°41' W 074°05'0 0.0
2017-Dec-17 03:26N 40°41' W 074°05'0 0.0
2017-Dec-17 02:59N 40°41' W 074°05'0 0.0
2017-Dec-17 02:26N 40°41' W 074°05'0 0.0
2017-Dec-17 01:53N 40°41' W 074°05'0 0.0
2017-Dec-17 01:29N 40°41' W 074°05'0 0.0
2017-Dec-17 00:56N 40°41' W 074°05'0 0.0
2017-Dec-17 00:26N 40°41' W 074°05'0 0.0
2017-Dec-16 23:59N 40°41' W 074°05'0 0.0
2017-Dec-16 23:29N 40°41' W 074°05'0 0.0
2017-Dec-16 22:47N 40°41' W 074°05'0 0.0
2017-Dec-16 22:26N 40°41' W 074°05'0 0.0
2017-Dec-16 21:59N 40°41' W 074°05'0 0.0
2017-Dec-16 21:29N 40°41' W 074°05'0 0.0
2017-Dec-16 20:56N 40°41' W 074°05'0 0.0
2017-Dec-16 20:26N 40°41' W 074°05'0 0.0
2017-Dec-16 19:53N 40°41' W 074°05'0 0.0
2017-Dec-16 19:29N 40°41' W 074°05'0 0.0
2017-Dec-16 18:59N 40°41' W 074°05'0 0.0
2017-Dec-16 18:29N 40°41' W 074°05'0 0.0
2017-Dec-16 17:59N 40°41' W 074°05'0 0.0
2017-Dec-16 17:20N 40°41' W 074°05'0 0.0
2017-Dec-16 16:59N 40°41' W 074°05'0 0.0
2017-Dec-16 16:26N 40°41' W 074°05'3 6.5
2017-Dec-16 16:01N 40°40' W 074°01'2 3.7
2017-Dec-16 15:30N 40°42' W 074°00'4 7.6
2017-Dec-16 15:00N 40°45' W 073°58'4 8.1
2017-Dec-16 14:30N 40°48' W 073°54'2 1.6
2017-Dec-16 13:25N 40°49' W 073°52'2 5.3
2017-Dec-16 13:00N 40°48' W 073°55'4 8.9
2017-Dec-16 12:30N 40°44' W 073°58'4 8.3
2017-Dec-16 12:00N 40°41' W 074°01'1 1.7
2017-Dec-16 11:30N 40°40' W 074°01'3 5.7
2017-Dec-16 10:58N 40°41' W 074°05'0 0.0
2017-Dec-16 10:28N 40°41' W 074°05'0 0.0
2017-Dec-16 09:58N 40°41' W 074°05'0 0.0
2017-Dec-16 09:28N 40°41' W 074°05'0 0.0
2017-Dec-16 08:58N 40°41' W 074°05'0 0.0
2017-Dec-16 08:28N 40°41' W 074°05'0 0.0
2017-Dec-16 07:58N 40°41' W 074°05'0 0.0
2017-Dec-16 07:22N 40°41' W 074°05'0 0.0
2017-Dec-16 06:58N 40°41' W 074°05'0 0.0
2017-Dec-16 06:28N 40°41' W 074°05'0 0.0
2017-Dec-16 05:58N 40°41' W 074°05'0 0.0
2017-Dec-16 05:28N 40°41' W 074°05'0 0.0
2017-Dec-16 04:58N 40°41' W 074°05'0 0.0
2017-Dec-16 04:28N 40°41' W 074°05'0 0.0
2017-Dec-16 03:58N 40°41' W 074°05'0 0.0
2017-Dec-16 03:07N 40°41' W 074°05'0 0.0
2017-Dec-16 02:58N 40°41' W 074°05'0 0.0
2017-Dec-16 01:49N 40°41' W 074°05'0 0.0
2017-Dec-16 01:25N 40°41' W 074°05'0 0.0
2017-Dec-16 00:55N 40°41' W 074°05'0 0.0
2017-Dec-16 00:25N 40°41' W 074°05'0 0.0
2017-Dec-15 23:55N 40°41' W 074°05'0 0.0
2017-Dec-15 23:25N 40°41' W 074°05'0 0.0
2017-Dec-15 22:55N 40°41' W 074°05'0 0.5
2017-Dec-15 22:30N 40°41' W 074°04'0 0.2
2017-Dec-15 21:31N 40°41' W 074°05'0 0.1
2017-Dec-15 21:25N 40°41' W 074°05'0 0.0
2017-Dec-15 20:55N 40°41' W 074°05'0 0.0
2017-Dec-15 20:12N 40°41' W 074°05'0 0.0
2017-Dec-15 18:46N 40°41' W 074°05'0 0.0
2017-Dec-15 18:28N 40°41' W 074°05'0 0.0
2017-Dec-15 17:58N 40°41' W 074°05'0 0.0
2017-Dec-15 17:29N 40°41' W 074°05'0 0.0
2017-Dec-15 16:59N 40°41' W 074°05'2 3.8
2017-Dec-15 16:30N 40°41' W 074°02'0 0.6
2017-Dec-15 16:00N 40°42' W 074°03'0 0.0
2017-Dec-15 15:30N 40°42' W 074°03'0 0.0
2017-Dec-15 15:00N 40°42' W 074°03'0 0.0
2017-Dec-15 14:30N 40°42' W 074°03'0 0.0
2017-Dec-15 14:00N 40°42' W 074°03'0 0.5
2017-Dec-15 13:30N 40°42' W 074°02'2 3.1
2017-Dec-15 12:57N 40°41' W 074°05'0 0.0
2017-Dec-15 12:30N 40°41' W 074°05'0 0.0
2017-Dec-15 11:57N 40°41' W 074°05'0 0.0
2017-Dec-15 11:29N 40°41' W 074°05'0 0.0
2017-Dec-15 10:59N 40°41' W 074°05'0 0.0
2017-Dec-15 10:29N 40°41' W 074°05'0 0.0
2017-Dec-15 09:59N 40°41' W 074°05'0 0.0
2017-Dec-15 09:23N 40°41' W 074°05'0 0.0
2017-Dec-15 08:59N 40°41' W 074°05'0 0.0
2017-Dec-15 08:26N 40°41' W 074°05'0 0.0
2017-Dec-15 07:59N 40°41' W 074°05'0 0.0
2017-Dec-15 07:29N 40°41' W 074°05'0 0.0
2017-Dec-15 06:59N 40°41' W 074°05'0 0.0
2017-Dec-15 06:29N 40°41' W 074°05'0 0.0
2017-Dec-15 05:59N 40°41' W 074°05'0 0.0
2017-Dec-15 05:26N 40°41' W 074°05'0 0.0
2017-Dec-15 04:56N 40°41' W 074°05'0 0.0
2017-Dec-15 04:20N 40°41' W 074°05'0 0.0
2017-Dec-15 03:59N 40°41' W 074°05'0 0.0
2017-Dec-15 02:26N 40°41' W 074°05'0 0.0
2017-Dec-15 00:50N 40°41' W 074°05'0 0.0
2017-Dec-15 00:30N 40°41' W 074°05'0 0.0
2017-Dec-14 18:26N 40°41' W 074°05'0 0.0
2017-Dec-14 17:56N 40°41' W 074°05'0 0.0
2017-Dec-14 17:29N 40°41' W 074°05'0 0.0
2017-Dec-14 16:56N 40°41' W 074°05'0 0.0
2017-Dec-14 16:26N 40°41' W 074°05'0 0.0
2017-Dec-14 15:56N 40°41' W 074°05'0 0.0
2017-Dec-14 14:59N 40°41' W 074°05'3 6.6
2017-Dec-14 14:30N 40°40' W 074°01'0 0.9
2017-Dec-14 14:01N 40°40' W 074°01'4 8.1
2017-Dec-14 13:30N 40°43' W 073°58'5 9.0
2017-Dec-14 13:00N 40°47' W 073°55'3 2.0
2017-Dec-14 11:44N 40°49' W 073°52'1 3.7
2017-Dec-14 11:30N 40°48' W 073°53'4 7.6
2017-Dec-14 10:59N 40°46' W 073°57'4 8.1
2017-Dec-14 10:30N 40°42' W 073°59'4 7.3
2017-Dec-14 10:00N 40°40' W 074°03'1 2.4
2017-Dec-14 09:30N 40°41' W 074°05'0 0.0
2017-Dec-14 09:00N 40°41' W 074°05'0 0.0
2017-Dec-14 08:30N 40°41' W 074°05'0 0.0
2017-Dec-14 07:57N 40°41' W 074°05'0 0.0
2017-Dec-14 07:30N 40°41' W 074°05'0 0.0
2017-Dec-14 07:00N 40°41' W 074°05'0 0.0
2017-Dec-14 06:30N 40°41' W 074°05'0 0.0
2017-Dec-14 05:48N 40°41' W 074°05'0 0.0
2017-Dec-14 05:30N 40°41' W 074°05'0 0.0
2017-Dec-14 04:57N 40°41' W 074°05'0 0.0
2017-Dec-14 04:27N 40°41' W 074°05'0 0.0
2017-Dec-14 03:54N 40°41' W 074°05'0 0.0
2017-Dec-14 03:24N 40°41' W 074°05'0 0.0
2017-Dec-14 02:45N 40°41' W 074°05'0 0.0
2017-Dec-14 02:30N 40°41' W 074°05'0 0.0
2017-Dec-14 01:51N 40°41' W 074°05'0 0.0
2017-Dec-14 01:27N 40°41' W 074°05'0 0.0
2017-Dec-14 01:00N 40°41' W 074°05'2 3.3
2017-Dec-14 00:30N 40°40' W 074°03'1 2.6
2017-Dec-14 00:01N 40°41' W 074°01'3 5.8
2017-Dec-13 23:31N 40°43' W 073°59'2 3.9
2017-Dec-13 22:59N 40°44' W 073°57'0 0.1
2017-Dec-13 22:30N 40°44' W 073°57'0 0.0
2017-Dec-13 22:00N 40°44' W 073°57'0 0.0
2017-Dec-13 21:30N 40°44' W 073°57'3 6.4
2017-Dec-13 21:00N 40°42' W 073°60'3 6.7
2017-Dec-13 20:30N 40°41' W 074°04'1 1.6
2017-Dec-13 19:59N 40°41' W 074°05'0 0.0
2017-Dec-13 19:29N 40°41' W 074°05'0 0.0
2017-Dec-13 18:59N 40°41' W 074°05'0 0.0
2017-Dec-13 18:29N 40°41' W 074°05'0 0.0
2017-Dec-13 17:59N 40°41' W 074°05'0 0.0
2017-Dec-13 17:29N 40°41' W 074°05'0 0.1
2017-Dec-13 17:00N 40°41' W 074°05'0 0.1
2017-Dec-13 16:27N 40°41' W 074°05'0 0.0
2017-Dec-13 15:57N 40°41' W 074°05'0 0.0
2017-Dec-13 15:27N 40°41' W 074°05'0 0.0
2017-Dec-13 14:57N 40°41' W 074°05'0 0.0
2017-Dec-13 13:42N 40°41' W 074°05'0 0.0
2017-Dec-13 12:36N 40°41' W 074°05'0 0.0
2017-Dec-13 12:30N 40°41' W 074°05'0 0.0
2017-Dec-13 11:45N 40°41' W 074°05'0 0.0
2017-Dec-13 11:27N 40°41' W 074°05'0 0.0
2017-Dec-13 10:57N 40°41' W 074°05'0 0.0
2017-Dec-13 10:30N 40°41' W 074°05'0 0.0
2017-Dec-13 10:00N 40°41' W 074°05'0 0.0
2017-Dec-13 09:27N 40°41' W 074°05'0 0.0
2017-Dec-13 08:51N 40°41' W 074°05'0 0.0
2017-Dec-13 08:27N 40°41' W 074°05'0 0.0
2017-Dec-13 08:00N 40°41' W 074°05'0 0.0
2017-Dec-13 07:30N 40°41' W 074°05'0 0.0
2017-Dec-13 06:57N 40°41' W 074°05'0 0.0
2017-Dec-13 06:27N 40°41' W 074°05'0 0.0
2017-Dec-13 06:00N 40°41' W 074°05'0 0.0
2017-Dec-13 05:27N 40°41' W 074°05'0 0.0
2017-Dec-13 04:54N 40°41' W 074°05'0 0.0
2017-Dec-13 04:30N 40°41' W 074°05'0 0.0
2017-Dec-13 03:54N 40°41' W 074°05'0 0.0
2017-Dec-13 03:24N 40°41' W 074°05'0 0.0
2017-Dec-13 03:00N 40°41' W 074°05'0 0.0
2017-Dec-13 02:27N 40°41' W 074°05'0 0.0
2017-Dec-13 02:00N 40°41' W 074°05'0 0.0
2017-Dec-13 01:27N 40°41' W 074°05'0 0.0
2017-Dec-13 00:54N 40°41' W 074°05'0 0.0
2017-Dec-13 00:27N 40°41' W 074°05'0 0.0
2017-Dec-12 23:57N 40°41' W 074°05'0 0.0
2017-Dec-12 23:30N 40°41' W 074°05'0 0.0
2017-Dec-12 23:00N 40°41' W 074°05'0 0.0
2017-Dec-12 22:21N 40°41' W 074°05'0 0.0
2017-Dec-12 22:00N 40°41' W 074°05'0 0.0
2017-Dec-12 21:27N 40°41' W 074°05'0 0.0
2017-Dec-12 20:54N 40°41' W 074°05'0 0.0
2017-Dec-12 20:30N 40°41' W 074°05'0 0.0
2017-Dec-12 20:00N 40°41' W 074°05'0 0.0
2017-Dec-12 19:27N 40°41' W 074°05'0 0.0
2017-Dec-12 19:00N 40°41' W 074°05'0 0.0
2017-Dec-12 18:30N 40°41' W 074°05'0 0.0
2017-Dec-12 17:57N 40°41' W 074°05'0 0.0
2017-Dec-12 17:27N 40°41' W 074°05'0 0.0
2017-Dec-12 17:00N 40°41' W 074°05'0 0.0
2017-Dec-12 16:30N 40°41' W 074°05'0 0.0
2017-Dec-12 16:00N 40°41' W 074°05'0 0.0
2017-Dec-12 15:27N 40°41' W 074°05'0 0.0
2017-Dec-12 15:00N 40°41' W 074°05'0 0.0
2017-Dec-12 14:30N 40°41' W 074°05'0 0.0
2017-Dec-12 14:00N 40°41' W 074°05'0 0.0
2017-Dec-12 13:30N 40°41' W 074°05'0 0.0
2017-Dec-12 13:00N 40°41' W 074°05'0 0.0
2017-Dec-12 12:12N 40°41' W 074°05'0 0.0
2017-Dec-12 12:00N 40°41' W 074°05'0 0.0
2017-Dec-12 11:27N 40°41' W 074°05'0 0.0
2017-Dec-12 11:00N 40°41' W 074°05'0 0.0
2017-Dec-12 10:27N 40°41' W 074°05'0 0.0
2017-Dec-12 09:57N 40°41' W 074°05'0 0.0
2017-Dec-12 09:27N 40°41' W 074°05'0 0.0
2017-Dec-12 08:54N 40°41' W 074°05'0 0.0
2017-Dec-12 08:27N 40°41' W 074°05'0 0.0
2017-Dec-12 08:00N 40°41' W 074°05'0 0.0
2017-Dec-12 07:30N 40°41' W 074°05'0 0.0
2017-Dec-12 07:00N 40°41' W 074°05'0 0.0
2017-Dec-12 06:30N 40°41' W 074°05'0 0.0
2017-Dec-12 06:00N 40°41' W 074°05'0 0.0
2017-Dec-12 05:30N 40°41' W 074°05'0 0.0
2017-Dec-12 05:00N 40°41' W 074°05'0 0.0
2017-Dec-12 04:27N 40°41' W 074°05'0 0.0
2017-Dec-12 04:00N 40°41' W 074°05'0 0.0
2017-Dec-12 03:30N 40°41' W 074°05'0 0.0
2017-Dec-12 03:00N 40°41' W 074°05'0 0.0
2017-Dec-12 02:27N 40°41' W 074°05'0 0.0
2017-Dec-12 02:00N 40°41' W 074°05'0 0.0
2017-Dec-12 01:30N 40°41' W 074°05'0 0.0
2017-Dec-12 00:48N 40°41' W 074°05'0 0.0
2017-Dec-12 00:24N 40°41' W 074°05'0 0.0
2017-Dec-11 23:57N 40°41' W 074°05'0 0.0
2017-Dec-11 23:30N 40°41' W 074°05'0 0.0
2017-Dec-11 23:00N 40°41' W 074°05'0 0.0
2017-Dec-11 22:27N 40°41' W 074°05'0 0.0
2017-Dec-11 21:57N 40°41' W 074°05'0 0.0
2017-Dec-11 21:27N 40°41' W 074°05'0 0.0
2017-Dec-11 21:00N 40°41' W 074°05'0 0.0
2017-Dec-11 20:21N 40°41' W 074°05'0 0.0
2017-Dec-11 19:57N 40°41' W 074°05'0 0.0
2017-Dec-11 19:30N 40°41' W 074°05'0 0.0
2017-Dec-11 18:51N 40°41' W 074°05'0 0.0
2017-Dec-11 18:24N 40°41' W 074°05'0 0.0
2017-Dec-11 17:57N 40°41' W 074°05'0 0.0
2017-Dec-11 17:27N 40°41' W 074°05'0 0.0
2017-Dec-11 17:00N 40°41' W 074°05'0 0.2
2017-Dec-11 16:28N 40°41' W 074°05'0 0.2
2017-Dec-11 16:00N 40°41' W 074°05'1 2.9
2017-Dec-11 15:29N 40°42' W 074°03'0 0.0
2017-Dec-11 14:59N 40°42' W 074°03'0 0.0
2017-Dec-11 14:29N 40°42' W 074°03'0 0.0
2017-Dec-11 13:59N 40°42' W 074°03'0 0.0
2017-Dec-11 13:29N 40°42' W 074°03'0 0.2
2017-Dec-11 12:59N 40°42' W 074°03'1 2.7
2017-Dec-11 12:31N 40°41' W 074°04'1 1.8
2017-Dec-11 11:58N 40°41' W 074°05'0 0.1
2017-Dec-11 11:30N 40°41' W 074°05'0 0.1
2017-Dec-11 11:00N 40°41' W 074°05'0 0.0
2017-Dec-11 10:30N 40°41' W 074°05'0 0.0
2017-Dec-11 09:57N 40°41' W 074°05'0 0.0
2017-Dec-11 09:27N 40°41' W 074°05'0 0.0
2017-Dec-11 09:00N 40°41' W 074°05'0 0.0
2017-Dec-11 08:31N 40°41' W 074°05'0 0.0
2017-Dec-11 08:00N 40°41' W 074°05'0 0.0
2017-Dec-11 07:30N 40°41' W 074°05'0 0.0
2017-Dec-11 07:00N 40°41' W 074°05'0 0.0
2017-Dec-11 06:30N 40°41' W 074°05'0 0.0
2017-Dec-11 05:57N 40°41' W 074°05'0 0.0
2017-Dec-11 05:30N 40°41' W 074°05'0 0.0
2017-Dec-11 04:54N 40°41' W 074°05'0 0.0
2017-Dec-11 04:30N 40°41' W 074°05'0 0.0
2017-Dec-11 03:54N 40°41' W 074°05'0 0.0
2017-Dec-11 03:30N 40°41' W 074°05'0 0.0
2017-Dec-11 03:00N 40°41' W 074°05'0 0.0
2017-Dec-11 02:30N 40°41' W 074°05'0 0.0
2017-Dec-11 01:57N 40°41' W 074°05'0 0.0
2017-Dec-11 01:30N 40°41' W 074°05'0 0.0
2017-Dec-11 00:57N 40°41' W 074°05'0 0.0
2017-Dec-11 00:30N 40°41' W 074°05'0 0.0
2017-Dec-11 00:00N 40°41' W 074°05'0 0.0
2017-Dec-10 23:30N 40°41' W 074°05'0 0.0
2017-Dec-10 22:57N 40°41' W 074°05'0 0.0
2017-Dec-10 22:30N 40°41' W 074°05'0 0.0
2017-Dec-10 22:00N 40°41' W 074°05'0 0.0
2017-Dec-10 21:27N 40°41' W 074°05'0 0.0
2017-Dec-10 21:00N 40°41' W 074°05'0 0.0
2017-Dec-10 20:30N 40°41' W 074°05'0 0.0
2017-Dec-10 20:00N 40°41' W 074°05'0 0.0
2017-Dec-10 19:30N 40°41' W 074°05'0 0.0
2017-Dec-10 19:00N 40°41' W 074°05'0 0.0
2017-Dec-10 18:30N 40°41' W 074°05'0 0.0
2017-Dec-10 17:57N 40°41' W 074°05'0 0.0
2017-Dec-10 17:30N 40°41' W 074°05'0 0.0
2017-Dec-10 16:51N 40°41' W 074°05'0 0.0
2017-Dec-10 16:30N 40°41' W 074°05'0 0.0
2017-Dec-10 16:00N 40°41' W 074°05'0 0.0
2017-Dec-10 15:30N 40°41' W 074°05'0 0.1
2017-Dec-10 15:00N 40°41' W 074°05'0 0.0
2017-Dec-10 14:29N 40°41' W 074°05'0 0.2
2017-Dec-10 14:00N 40°41' W 074°05'0 0.0
2017-Dec-10 13:24N 40°41' W 074°05'0 0.0
2017-Dec-10 12:57N 40°41' W 074°05'0 0.0
2017-Dec-10 12:30N 40°41' W 074°05'0 0.0
2017-Dec-10 12:00N 40°41' W 074°05'0 0.0
2017-Dec-10 11:30N 40°41' W 074°05'0 0.0
2017-Dec-10 10:57N 40°41' W 074°05'0 0.0
2017-Dec-10 10:27N 40°41' W 074°05'0 0.0
2017-Dec-10 09:57N 40°41' W 074°05'0 0.0
2017-Dec-10 09:28N 40°41' W 074°05'0 0.0
2017-Dec-10 08:58N 40°41' W 074°05'0 0.0
2017-Dec-10 08:30N 40°41' W 074°05'0 0.0
2017-Dec-10 08:00N 40°41' W 074°05'0 0.0
2017-Dec-10 07:30N 40°41' W 074°05'0 0.0
2017-Dec-10 06:54N 40°41' W 074°05'0 0.0
2017-Dec-10 06:30N 40°41' W 074°05'0 0.0
2017-Dec-10 06:00N 40°41' W 074°05'0 0.0
2017-Dec-10 05:24N 40°41' W 074°05'0 0.0
2017-Dec-10 05:00N 40°41' W 074°05'0 0.0
2017-Dec-10 04:30N 40°41' W 074°05'0 0.0
2017-Dec-10 04:00N 40°41' W 074°05'0 0.0
2017-Dec-10 03:30N 40°41' W 074°05'0 0.0
2017-Dec-10 03:00N 40°41' W 074°05'0 0.0
2017-Dec-10 02:30N 40°41' W 074°05'0 0.0
2017-Dec-10 02:00N 40°41' W 074°05'0 0.0
2017-Dec-10 01:24N 40°41' W 074°05'0 0.0
2017-Dec-10 01:00N 40°41' W 074°05'0 0.0
2017-Dec-10 00:30N 40°41' W 074°05'0 0.0
2017-Dec-10 00:00N 40°41' W 074°05'0 0.0
2017-Dec-09 23:30N 40°41' W 074°05'0 0.0
2017-Dec-09 23:00N 40°41' W 074°05'0 0.0
2017-Dec-09 22:27N 40°41' W 074°05'0 0.0
2017-Dec-09 22:00N 40°41' W 074°05'0 0.0
2017-Dec-09 21:27N 40°41' W 074°05'0 0.0
2017-Dec-09 21:00N 40°41' W 074°05'0 0.0
2017-Dec-09 20:30N 40°41' W 074°05'0 0.0
2017-Dec-09 20:00N 40°41' W 074°05'0 0.0
2017-Dec-09 19:30N 40°41' W 074°05'0 0.5
2017-Dec-09 19:00N 40°41' W 074°04'2 4.4
2017-Dec-09 18:30N 40°40' W 074°02'1 2.0
2017-Dec-09 17:58N 40°40' W 074°01'0 1.0
2017-Dec-09 17:30N 40°40' W 074°01'3 6.1
2017-Dec-09 17:00N 40°41' W 074°05'0 0.0
2017-Dec-09 16:30N 40°41' W 074°05'0 0.0
2017-Dec-09 15:54N 40°41' W 074°05'0 0.0
2017-Dec-09 15:30N 40°41' W 074°05'0 0.0
2017-Dec-09 14:54N 40°41' W 074°05'0 0.0
2017-Dec-09 14:30N 40°41' W 074°05'0 0.0
2017-Dec-09 14:00N 40°41' W 074°05'0 0.0
2017-Dec-09 13:27N 40°41' W 074°05'0 0.0
2017-Dec-09 13:00N 40°41' W 074°05'0 0.0
2017-Dec-09 12:27N 40°41' W 074°05'0 0.0
2017-Dec-09 12:00N 40°41' W 074°05'0 0.0
2017-Dec-09 11:24N 40°41' W 074°05'0 0.0
2017-Dec-09 10:57N 40°41' W 074°05'0 0.0
2017-Dec-09 10:30N 40°41' W 074°05'0 0.0
2017-Dec-09 09:51N 40°41' W 074°05'0 0.0
2017-Dec-09 09:30N 40°41' W 074°05'0 0.0
2017-Dec-09 08:54N 40°41' W 074°05'0 0.0
2017-Dec-09 08:30N 40°41' W 074°05'0 0.0
2017-Dec-09 07:57N 40°41' W 074°05'0 0.0
2017-Dec-09 07:24N 40°41' W 074°05'0 0.0
2017-Dec-09 07:00N 40°41' W 074°05'0 0.0
2017-Dec-09 06:30N 40°41' W 074°05'0 0.0
2017-Dec-09 06:00N 40°41' W 074°05'0 0.0
2017-Dec-09 05:27N 40°41' W 074°05'0 0.0
2017-Dec-09 05:00N 40°41' W 074°05'0 0.0
2017-Dec-09 04:30N 40°41' W 074°05'0 0.0
2017-Dec-09 04:00N 40°41' W 074°05'0 0.0
2017-Dec-09 03:30N 40°41' W 074°05'0 0.0
2017-Dec-09 02:54N 40°41' W 074°05'0 0.0
2017-Dec-09 02:30N 40°41' W 074°05'0 0.0
2017-Dec-09 01:54N 40°41' W 074°05'0 0.0
2017-Dec-09 01:30N 40°41' W 074°05'0 0.0
2017-Dec-09 01:00N 40°41' W 074°05'0 0.0
2017-Dec-09 00:30N 40°41' W 074°05'0 0.0
2017-Dec-09 00:00N 40°41' W 074°05'0 0.0
2017-Dec-08 23:30N 40°41' W 074°05'0 0.0
2017-Dec-08 22:57N 40°41' W 074°05'0 0.0
2017-Dec-08 22:30N 40°41' W 074°05'0 0.0
2017-Dec-08 22:00N 40°41' W 074°05'0 0.0
2017-Dec-08 21:30N 40°41' W 074°05'0 0.0
2017-Dec-08 20:54N 40°41' W 074°05'0 0.0
2017-Dec-08 20:30N 40°41' W 074°05'0 0.0
2017-Dec-08 20:00N 40°41' W 074°05'0 0.0
2017-Dec-08 19:30N 40°41' W 074°05'0 0.0
2017-Dec-08 18:54N 40°41' W 074°05'0 0.0
2017-Dec-08 18:24N 40°41' W 074°05'0 0.0
2017-Dec-08 17:54N 40°41' W 074°05'0 0.0
2017-Dec-08 17:30N 40°41' W 074°05'0 0.0
2017-Dec-08 16:51N 40°41' W 074°05'0 0.0
2017-Dec-08 16:30N 40°41' W 074°05'0 0.0
2017-Dec-08 16:00N 40°41' W 074°05'0 0.0
2017-Dec-08 15:24N 40°41' W 074°05'0 0.0
2017-Dec-08 15:00N 40°41' W 074°05'0 0.0
2017-Dec-08 14:27N 40°41' W 074°05'0 0.0
2017-Dec-08 13:57N 40°41' W 074°05'0 0.0
2017-Dec-08 13:30N 40°41' W 074°05'0 0.0
2017-Dec-08 13:00N 40°41' W 074°05'0 0.0
2017-Dec-08 12:30N 40°41' W 074°05'0 0.0
2017-Dec-08 12:00N 40°41' W 074°05'0 0.0
2017-Dec-08 11:30N 40°41' W 074°05'0 0.0
2017-Dec-08 11:00N 40°41' W 074°05'0 0.0
2017-Dec-08 10:30N 40°41' W 074°05'0 0.0
2017-Dec-08 10:00N 40°41' W 074°05'0 0.0
2017-Dec-08 09:30N 40°41' W 074°05'0 0.0
2017-Dec-08 09:00N 40°41' W 074°05'0 0.0
2017-Dec-08 08:30N 40°41' W 074°05'0 0.0
2017-Dec-08 08:00N 40°41' W 074°05'0 0.0
2017-Dec-08 07:30N 40°41' W 074°05'0 0.0
2017-Dec-08 07:00N 40°41' W 074°05'0 0.0
2017-Dec-08 06:30N 40°41' W 074°05'0 0.0
2017-Dec-08 05:48N 40°41' W 074°05'0 0.0
2017-Dec-08 05:24N 40°41' W 074°05'0 0.0
2017-Dec-08 04:57N 40°41' W 074°05'0 0.0
2017-Dec-08 04:30N 40°41' W 074°05'0 0.0
2017-Dec-08 04:00N 40°41' W 074°05'0 0.0
2017-Dec-08 03:30N 40°41' W 074°05'0 0.0
2017-Dec-08 03:00N 40°41' W 074°05'0 0.0
2017-Dec-08 02:30N 40°41' W 074°05'0 0.0
2017-Dec-08 02:00N 40°41' W 074°05'0 0.0
2017-Dec-08 01:24N 40°41' W 074°05'0 0.0
2017-Dec-08 01:00N 40°41' W 074°05'0 0.0
2017-Dec-08 00:30N 40°41' W 074°05'0 0.0
2017-Dec-08 00:00N 40°41' W 074°05'  

Dump ship's entire track history